Time;durP1;ratioP1;P1;durP2;ratioP2;P2;SDS_P1;SDS_P2;PMS_P1;PMS_P2;Temp;Humidity;BMP_temperature;BMP_pressure;BME280_temperature;BME280_humidity;BME280_pressure;Samples;Min_cycle;Max_cycle;Signal;HPM_P1;HPM_P2
2022/11/03 04:58:35;;;;;;;11.10;5.32;;;;;;;7.87;100.00;101136.38;5359711;28;20142;-89
2022/11/03 05:01:38;;;;;;;11.12;5.70;;;;;;;7.84;100.00;101142.03;5225351;34;34290;-86
2022/11/03 05:04:41;;;;;;;9.52;5.53;;;;;;;7.85;100.00;101137.50;5224379;34;33944;-86
2022/11/03 05:07:47;;;;;;;8.60;5.28;;;;;;;7.83;100.00;101140.31;5227489;34;34244;-86
2022/11/03 05:10:49;;;;;;;9.48;5.70;;;;;;;7.84;100.00;101138.47;5229467;34;34158;-86
2022/11/03 05:13:52;;;;;;;14.60;5.40;;;;;;;7.87;100.00;101141.75;5223507;34;34464;-86
2022/11/03 05:16:55;;;;;;;10.85;6.18;;;;;;;7.85;100.00;101142.88;5221815;34;34533;-88
2022/11/03 05:20:01;;;;;;;8.32;5.43;;;;;;;7.82;100.00;101145.84;5220574;34;33875;-86
2022/11/03 05:23:04;;;;;;;9.68;5.78;;;;;;;7.76;100.00;101155.28;5220308;34;35440;-86
2022/11/03 05:26:16;;;;;;;11.20;6.20;;;;;;;7.69;100.00;101155.00;5220933;34;34001;-86
2022/11/03 05:29:34;;;;;;;9.38;5.62;;;;;;;7.69;100.00;101163.06;5221688;34;34708;-86
2022/11/03 05:32:37;;;;;;;12.55;6.57;;;;;;;7.63;100.00;101158.22;5219404;34;33733;-86
2022/11/03 05:35:41;;;;;;;12.40;6.20;;;;;;;7.59;100.00;101162.19;5221153;34;34498;-86
2022/11/03 05:38:44;;;;;;;12.23;6.10;;;;;;;7.58;100.00;101165.84;5221415;34;33956;-86
2022/11/03 05:41:47;;;;;;;12.20;5.45;;;;;;;7.59;100.00;101172.06;5222369;34;33897;-84
2022/11/03 05:44:50;;;;;;;14.73;6.07;;;;;;;7.60;100.00;101181.78;5207785;34;33732;-84
2022/11/03 05:47:54;;;;;;;19.55;7.22;;;;;;;7.62;100.00;101185.19;5220550;34;34436;-84
2022/11/03 05:50:59;;;;;;;16.25;7.40;;;;;;;7.60;100.00;101184.47;5220619;34;34890;-84
2022/11/03 05:54:04;;;;;;;21.05;7.10;;;;;;;7.59;100.00;101191.66;5207765;34;33162;-84
2022/11/03 05:57:10;;;;;;;31.85;8.52;;;;;;;7.59;100.00;101193.50;5220793;34;34212;-84
2022/11/03 06:00:41;;;;;;;20.35;7.72;;;;;;;7.58;100.00;101186.47;5203717;34;33739;-84
2022/11/03 06:03:50;;;;;;;27.13;8.35;;;;;;;7.61;100.00;101191.53;5203404;34;34444;-84
2022/11/03 06:06:57;;;;;;;24.10;8.32;;;;;;;7.69;100.00;101205.06;5203649;34;34527;-84
2022/11/03 06:10:00;;;;;;;25.02;8.23;;;;;;;7.76;100.00;101200.84;5203930;34;34760;-84
2022/11/03 06:13:26;;;;;;;30.70;8.65;;;;;;;7.78;100.00;101206.06;5206695;34;34106;-85
2022/11/03 06:16:31;;;;;;;18.42;8.35;;;;;;;7.80;100.00;101209.47;5203124;34;34093;-85
2022/11/03 06:19:41;;;;;;;30.30;7.70;;;;;;;7.87;100.00;101205.25;5203778;34;33633;-85
2022/11/03 06:22:44;;;;;;;28.48;8.55;;;;;;;7.95;100.00;101214.25;5206323;34;33917;-85
2022/11/03 06:25:47;;;;;;;29.00;8.77;;;;;;;8.06;100.00;101210.59;5202902;34;34150;-85
2022/11/03 06:28:50;;;;;;;22.27;8.68;;;;;;;8.18;100.00;101205.94;5191261;34;32172;-85
2022/11/03 06:31:56;;;;;;;36.05;8.85;;;;;;;8.27;100.00;101209.63;5208392;34;33519;-85
2022/11/03 06:35:00;;;;;;;17.75;7.35;;;;;;;8.37;100.00;101207.78;5213599;34;33664;-86
2022/11/03 06:38:04;;;;;;;15.50;7.47;;;;;;;8.52;100.00;101206.37;5220229;34;34392;-86
2022/11/03 06:41:19;;;;;;;10.70;6.90;;;;;;;8.73;100.00;101208.88;5219166;34;33932;-85
2022/11/03 06:44:25;;;;;;;15.77;7.05;;;;;;;8.87;100.00;101204.88;5203837;34;34260;-85
2022/11/03 06:47:28;;;;;;;11.80;6.90;;;;;;;8.99;100.00;101206.37;5190073;34;32110;-85
2022/11/03 06:50:32;;;;;;;11.18;6.87;;;;;;;9.14;100.00;101209.44;5203068;34;33965;-85
2022/11/03 06:53:35;;;;;;;14.48;7.85;;;;;;;9.30;100.00;101220.41;5203333;34;33961;-85
2022/11/03 06:56:38;;;;;;;13.68;6.82;;;;;;;9.47;100.00;101217.88;5203371;34;35274;-86
2022/11/03 06:59:41;;;;;;;10.85;6.35;;;;;;;9.65;100.00;101216.09;5199150;34;261491;-85
2022/11/03 07:03:06;;;;;;;10.20;6.65;;;;;;;9.81;100.00;101225.34;5206910;34;33965;-85
2022/11/03 07:06:10;;;;;;;9.93;6.35;;;;;;;10.01;100.00;101229.56;5201575;34;33839;-83
2022/11/03 07:09:21;;;;;;;11.77;6.32;;;;;;;10.06;100.00;101232.66;5217175;34;34072;-84
2022/11/03 07:12:24;;;;;;;11.57;6.18;;;;;;;10.19;100.00;101227.72;5201866;34;34539;-84
2022/11/03 07:15:31;;;;;;;12.70;6.20;;;;;;;10.35;100.00;101239.66;5189903;34;32823;-84
2022/11/03 07:18:39;;;;;;;14.15;6.30;;;;;;;10.38;100.00;101236.66;5188972;34;35005;-84
2022/11/03 07:21:55;;;;;;;15.32;6.07;;;;;;;10.32;100.00;101237.28;5202240;34;35033;-84
2022/11/03 07:25:02;;;;;;;11.70;6.45;;;;;;;10.17;100.00;101240.47;5189253;34;31530;-89
2022/11/03 07:28:05;;;;;;;10.88;6.50;;;;;;;10.23;100.00;101244.41;5201679;34;34640;-85
2022/11/03 07:31:34;;;;;;;9.98;5.68;;;;;;;10.35;100.00;101239.66;5188840;34;32427;-84
2022/11/03 07:34:37;;;;;;;13.37;6.17;;;;;;;10.57;100.00;101238.34;5197831;34;34859;-84
2022/11/03 07:37:40;;;;;;;13.65;6.55;;;;;;;10.81;100.00;101246.56;5201032;34;34393;-84
2022/11/03 07:40:42;;;;;;;12.75;6.50;;;;;;;11.00;100.00;101233.91;5189471;34;32328;-85
2022/11/03 07:43:59;;;;;;;13.25;6.30;;;;;;;11.12;100.00;101238.88;5201688;34;33545;-84
2022/11/03 07:47:02;;;;;;;12.60;6.43;;;;;;;11.24;100.00;101225.94;5191492;34;34114;-84
2022/11/03 07:50:13;;;;;;;15.00;6.35;;;;;;;11.35;100.00;101243.69;5189412;34;33116;-84
2022/11/03 07:53:24;;;;;;;13.43;6.68;;;;;;;11.44;100.00;101237.34;5191774;34;34586;-84
2022/11/03 07:56:33;;;;;;;11.40;6.78;;;;;;;11.47;100.00;101236.16;5188733;34;32683;-84
2022/11/03 07:59:42;;;;;;;15.50;7.53;;;;;;;11.51;100.00;101238.34;5204161;34;33784;-84
2022/11/03 08:02:51;;;;;;;;;;;;;;;11.64;100.00;101234.34;5189480;34;32682;-85
2022/11/03 08:05:54;;;;;;;13.68;7.72;;;;;;;11.54;100.00;101237.19;5200940;34;35110;-85
2022/11/03 08:08:57;;;;;;;14.18;7.25;;;;;;;11.66;100.00;101229.66;5201185;34;33908;-85
2022/11/03 08:12:00;;;;;;;13.35;7.90;;;;;;;11.72;100.00;101229.81;5201754;34;34359;-84
2022/11/03 08:15:02;;;;;;;19.23;8.77;;;;;;;11.69;100.00;101224.75;5202129;34;33936;-85
2022/11/03 08:18:05;;;;;;;18.52;9.10;;;;;;;11.82;100.00;101227.00;5208697;34;34062;-85
2022/11/03 08:21:08;;;;;;;16.23;9.10;;;;;;;11.78;100.00;101225.62;5201166;34;34106;-84
2022/11/03 08:24:11;;;;;;;20.27;10.00;;;;;;;11.84;100.00;101226.81;5187910;34;32814;-85
2022/11/03 08:27:13;;;;;;;21.48;10.57;;;;;;;11.83;100.00;101219.75;5201647;34;34751;-85
2022/11/03 08:30:16;;;;;;;21.27;10.50;;;;;;;11.75;100.00;101217.84;5205213;34;34043;-84
2022/11/03 08:33:19;;;;;;;22.05;10.15;;;;;;;11.73;100.00;101217.19;5186158;34;33333;-85
2022/11/03 08:36:22;;;;;;;24.35;11.15;;;;;;;11.78;100.00;101217.53;5198925;34;34698;-85
2022/11/03 08:39:24;;;;;;;23.20;11.40;;;;;;;11.75;100.00;101212.47;5189040;34;33422;-84
2022/11/03 08:42:27;;;;;;;22.90;10.57;;;;;;;11.88;100.00;101210.19;5203547;34;34682;-84
2022/11/03 08:45:30;;;;;;;21.27;11.35;;;;;;;11.77;100.00;101213.16;5201511;34;34357;-85
2022/11/03 08:48:33;;;;;;;28.10;12.85;;;;;;;11.69;100.00;101202.34;5201221;34;34101;-84
2022/11/03 08:51:35;;;;;;;30.45;12.35;;;;;;;11.82;100.00;101202.72;5188450;34;32731;-88
2022/11/03 08:54:47;;;;;;;25.12;12.50;;;;;;;11.96;100.00;101204.81;5200537;34;34022;-89
2022/11/03 08:57:50;;;;;;;26.50;12.30;;;;;;;12.05;100.00;101208.34;5189438;34;32810;-85
2022/11/03 09:00:53;;;;;;;26.95;12.77;;;;;;;12.05;100.00;101212.87;5204639;34;34157;-85
2022/11/03 09:03:55;;;;;;;25.50;11.85;;;;;;;11.94;100.00;101206.81;5204238;34;34470;-84
2022/11/03 09:06:59;;;;;;;31.37;12.27;;;;;;;11.99;100.00;101204.47;5190330;34;32421;-84
2022/11/03 09:10:01;;;;;;;25.17;12.88;;;;;;;11.99;100.00;101195.50;5204847;34;34952;-84
2022/11/03 09:13:19;;;;;;;26.55;12.70;;;;;;;11.89;100.00;101189.44;5194986;34;32755;-84
2022/11/03 09:16:22;;;;;;;27.80;12.32;;;;;;;11.96;100.00;101188.63;5202238;34;34280;-84
2022/11/03 09:19:25;;;;;;;26.10;12.57;;;;;;;12.06;100.00;101193.00;5189955;34;32716;-84
2022/11/03 09:22:27;;;;;;;23.75;11.48;;;;;;;11.73;100.00;101188.38;5202106;34;32988;-84
2022/11/03 09:25:30;;;;;;;25.80;12.98;;;;;;;11.85;100.00;101185.34;5184772;34;33426;-84
2022/11/03 09:28:33;;;;;;;27.90;12.73;;;;;;;11.71;100.00;101187.69;5203000;34;33908;-84
2022/11/03 09:31:35;;;;;;;24.85;12.32;;;;;;;11.70;100.00;101188.69;5198625;34;34542;-84
2022/11/03 09:34:38;;;;;;;25.23;12.73;;;;;;;11.93;100.00;101186.22;5201155;34;34005;-84
2022/11/03 09:37:41;;;;;;;26.00;12.85;;;;;;;11.96;100.00;101180.50;5189934;34;32983;-84
2022/11/03 09:40:43;;;;;;;26.27;12.68;;;;;;;12.18;100.00;101175.44;5201417;34;34802;-85
2022/11/03 09:43:47;;;;;;;27.13;13.25;;;;;;;12.18;100.00;101176.28;5202548;34;33910;-84
2022/11/03 09:46:50;;;;;;;28.30;13.70;;;;;;;12.29;100.00;101172.41;5183142;34;34647;-84
2022/11/03 09:50:03;;;;;;;28.52;12.50;;;;;;;12.32;100.00;101171.25;5187610;34;32415;-85
2022/11/03 09:53:10;;;;;;;25.37;12.40;;;;;;;12.28;100.00;101168.00;5190404;34;32863;-85
2022/11/03 09:56:17;;;;;;;27.10;12.52;;;;;;;12.15;100.00;101165.84;5203036;34;33995;-85
2022/11/03 09:59:21;;;;;;;25.30;11.90;;;;;;;12.20;100.00;101166.19;5190450;34;32436;-84
2022/11/03 10:02:30;;;;;;;37.22;13.05;;;;;;;12.17;100.00;101163.81;5202308;34;34335;-85
2022/11/03 10:05:33;;;;;;;30.47;13.80;;;;;;;12.22;100.00;101160.59;5202150;34;35428;-85
2022/11/03 10:08:38;;;;;;;29.75;12.75;;;;;;;12.11;100.00;101153.69;5189735;34;32236;-85
2022/11/03 10:11:42;;;;;;;29.67;14.50;;;;;;;12.07;100.00;101146.09;5202147;34;34253;-85
2022/11/03 10:14:46;;;;;;;31.12;13.75;;;;;;;11.97;100.00;101136.31;5189042;34;32740;-85
2022/11/03 10:17:50;;;;;;;32.92;14.15;;;;;;;12.07;100.00;101138.84;5178913;34;32576;-84
2022/11/03 10:20:52;;;;;;;29.00;14.13;;;;;;;12.16;100.00;101145.06;5188799;34;33251;-85
2022/11/03 10:23:55;;;;;;;29.60;14.13;;;;;;;12.07;100.00;101135.31;5203912;34;34595;-84
2022/11/03 10:26:57;;;;;;;27.50;12.88;;;;;;;11.97;100.00;101130.09;5204685;34;33630;-85
2022/11/03 10:30:06;;;;;;;29.85;13.75;;;;;;;11.92;100.00;101127.88;5202449;34;33870;-84
2022/11/03 10:33:24;;;;;;;25.98;12.75;;;;;;;11.81;100.00;101111.97;5190042;34;32664;-85
2022/11/03 10:36:30;;;;;;;27.98;12.07;;;;;;;11.79;100.00;101119.41;5202509;34;33979;-85
2022/11/03 10:39:32;;;;;;;28.23;12.43;;;;;;;11.58;100.00;101114.47;5206808;34;34599;-85
2022/11/03 10:42:35;;;;;;;29.05;13.25;;;;;;;11.73;100.00;101099.34;5189652;34;33169;-84
2022/11/03 10:45:38;;;;;;;27.20;12.68;;;;;;;11.80;100.00;101096.81;5189860;34;33147;-85
2022/11/03 10:48:41;;;;;;;27.60;12.10;;;;;;;11.76;100.00;101099.00;5190039;34;32113;-85
2022/11/03 10:51:47;;;;;;;29.67;11.95;;;;;;;11.66;100.00;101084.81;5201854;34;34882;-84
2022/11/03 10:54:52;;;;;;;28.20;12.75;;;;;;;11.54;100.00;101081.63;5201611;34;33753;-84
2022/11/03 10:57:57;;;;;;;30.02;12.37;;;;;;;11.72;100.00;101078.75;5201941;34;34454;-85
2022/11/03 11:01:00;;;;;;;25.30;11.50;;;;;;;11.56;100.00;101079.59;5186475;34;33101;-85
2022/11/03 11:04:03;;;;;;;22.13;10.77;;;;;;;11.66;100.00;101075.91;5189358;34;32649;-85
2022/11/03 11:07:23;;;;;;;26.35;12.02;;;;;;;11.71;100.00;101068.16;5202651;34;33773;-84
2022/11/03 11:10:29;;;;;;;29.63;12.27;;;;;;;11.74;100.00;101059.72;5182865;34;33188;-85
2022/11/03 11:13:31;;;;;;;29.92;12.90;;;;;;;11.75;100.00;101053.31;5197719;34;33507;-84
2022/11/03 11:16:48;;;;;;;27.52;13.23;;;;;;;11.76;100.00;101046.91;5201770;34;34555;-84
2022/11/03 11:20:30;;;;;;;33.75;16.48;;;;;;;11.86;100.00;101038.69;5201904;34;34646;-84
2022/11/03 11:23:32;;;;;;;30.27;14.82;;;;;;;11.90;100.00;101032.75;5201006;34;33973;-85
2022/11/03 11:26:36;;;;;;;31.70;14.52;;;;;;;11.86;100.00;101031.41;5189509;34;32532;-84
2022/11/03 11:29:39;;;;;;;28.67;12.85;;;;;;;11.78;100.00;101024.13;5197366;34;32801;-84
2022/11/03 11:32:45;;;;;;;29.95;14.52;;;;;;;11.79;100.00;101023.13;5201453;34;34043;-85
2022/11/03 11:35:47;;;;;;;27.83;12.32;;;;;;;11.80;100.00;101018.56;5201743;34;34416;-85
2022/11/03 11:38:51;;;;;;;31.62;13.90;;;;;;;11.81;100.00;101014.84;5201007;34;33684;-85
2022/11/03 11:42:16;;;;;;;27.58;13.20;;;;;;;11.99;100.00;101012.87;5186258;34;31242;-84
2022/11/03 11:45:57;;;;;;;31.58;14.90;;;;;;;12.07;100.00;101000.34;5199145;34;33694;-85
2022/11/03 11:49:02;;;;;;;29.60;13.23;;;;;;;12.01;100.00;100999.19;5181419;34;34005;-85
2022/11/03 11:52:07;;;;;;;27.25;12.95;;;;;;;11.92;100.00;100989.41;5195634;34;34322;-85
2022/11/03 11:55:38;;;;;;;28.48;13.38;;;;;;;12.11;100.00;100985.47;5180204;34;32868;-85
2022/11/03 11:58:45;;;;;;;28.87;13.75;;;;;;;12.09;100.00;100982.97;5184158;34;32417;-85
2022/11/03 12:01:50;;;;;;;28.73;13.73;;;;;;;12.05;100.00;100980.78;5182097;34;34018;-85
2022/11/03 12:05:02;;;;;;;31.58;13.32;;;;;;;12.06;100.00;100975.22;5178693;34;33516;-84
2022/11/03 12:08:19;;;;;;;31.48;13.60;;;;;;;12.13;100.00;100968.09;5185897;34;34499;-85
2022/11/03 12:11:50;;;;;;;31.70;13.93;;;;;;;12.18;100.00;100946.84;5181443;34;34046;-84
2022/11/03 12:14:57;;;;;;;31.75;13.73;;;;;;;12.24;100.00;100953.41;5187326;34;35889;-89
2022/11/03 12:18:32;;;;;;;36.65;15.00;;;;;;;12.07;100.00;100957.16;5191329;34;35534;-89
2022/11/03 12:21:49;;;;;;;33.92;14.30;;;;;;;12.02;100.00;100958.53;5165168;34;32726;-85
2022/11/03 12:24:59;;;;;;;36.75;15.27;;;;;;;12.05;100.00;100956.50;5163211;34;32424;-85
2022/11/03 12:28:02;;;;;;;31.73;14.32;;;;;;;12.10;100.00;100946.88;5188699;34;34445;-84
2022/11/03 12:31:05;;;;;;;37.58;14.52;;;;;;;12.20;100.00;100943.97;5191974;34;34318;-85
2022/11/03 12:34:07;;;;;;;35.17;14.13;;;;;;;12.08;100.00;100932.72;5196038;34;34394;-85
2022/11/03 12:37:11;;;;;;;35.45;16.30;;;;;;;11.92;100.00;100925.50;5186696;34;33368;-84
2022/11/03 12:40:13;;;;;;;36.42;15.13;;;;;;;12.01;100.00;100915.53;5185780;34;33730;-85
2022/11/03 12:43:16;;;;;;;33.67;15.23;;;;;;;11.96;100.00;100926.84;5167747;34;32267;-85
2022/11/03 12:46:21;;;;;;;32.00;14.18;;;;;;;12.05;100.00;100922.28;5184247;34;34111;-85
2022/11/03 12:49:24;;;;;;;34.63;14.77;;;;;;;11.99;100.00;100917.53;5184135;34;34364;-85
2022/11/03 12:52:26;;;;;;;33.83;14.30;;;;;;;11.87;100.00;100911.69;5186159;34;33904;-84
2022/11/03 12:55:29;;;;;;;35.88;14.85;;;;;;;11.92;100.00;100906.62;5189068;34;34750;-85
2022/11/03 12:58:32;;;;;;;35.00;15.05;;;;;;;11.92;100.00;100911.19;5185706;34;34933;-85
2022/11/03 13:01:35;;;;;;;34.75;15.40;;;;;;;12.05;100.00;100911.47;5166824;34;32336;-85
2022/11/03 13:04:37;;;;;;;43.75;15.90;;;;;;;12.08;100.00;100910.25;5171032;34;32933;-85
2022/11/03 13:07:42;;;;;;;36.70;15.57;;;;;;;11.89;100.00;100908.81;5201919;34;34571;-85
2022/11/03 13:10:44;;;;;;;44.58;17.33;;;;;;;11.85;100.00;100908.34;5206112;34;33182;-85
2022/11/03 13:13:47;;;;;;;38.53;16.42;;;;;;;11.72;100.00;100903.44;5189736;34;34210;-85
2022/11/03 13:16:49;;;;;;;38.15;16.60;;;;;;;11.69;100.00;100908.34;5185989;34;35384;-85
2022/11/03 13:19:53;;;;;;;36.22;16.20;;;;;;;11.60;100.00;100899.41;5168212;34;33562;-85
2022/11/03 13:22:56;;;;;;;37.63;14.77;;;;;;;11.63;100.00;100900.94;5169588;34;32480;-86
2022/11/03 13:25:58;;;;;;;32.53;14.82;;;;;;;11.53;100.00;100895.75;5184867;34;33986;-87
2022/11/03 13:29:01;;;;;;;31.05;14.63;;;;;;;11.59;100.00;100895.03;5184661;34;33753;-86
2022/11/03 13:32:04;;;;;;;25.33;12.35;;;;;;;11.58;100.00;100894.22;5170052;34;33712;-86
2022/11/03 13:35:08;;;;;;;28.20;13.20;;;;;;;11.66;100.00;100896.03;5185222;34;34008;-86
2022/11/03 13:38:15;;;;;;;26.67;12.63;;;;;;;11.67;100.00;100889.66;5186051;34;33970;-87
2022/11/03 13:41:18;;;;;;;24.95;13.13;;;;;;;11.55;100.00;100889.16;5173830;34;32613;-86
2022/11/03 13:44:21;;;;;;;26.27;12.50;;;;;;;11.62;100.00;100889.31;5185896;34;34728;-86
2022/11/03 13:47:23;;;;;;;29.63;12.85;;;;;;;11.42;100.00;100878.06;5172934;34;32305;-86
2022/11/03 13:50:49;;;;;;;26.08;12.70;;;;;;;11.39;100.00;100877.56;5181457;34;33707;-87
2022/11/03 13:53:52;;;;;;;27.67;12.63;;;;;;;11.33;100.00;100882.62;5186074;34;34481;-87
2022/11/03 13:57:15;;;;;;;27.17;12.93;;;;;;;11.31;100.00;100887.31;5175859;34;32698;-86
2022/11/03 14:00:37;;;;;;;24.95;12.18;;;;;;;11.35;100.00;100885.16;5202320;34;34327;-86
2022/11/03 14:03:40;;;;;;;28.38;13.62;;;;;;;11.33;100.00;100877.22;5188261;34;32381;-86
2022/11/03 14:07:04;;;;;;;29.35;12.70;;;;;;;11.09;100.00;100878.09;5194884;34;32401;-86
2022/11/03 14:10:07;;;;;;;30.17;12.23;;;;;;;11.13;100.00;100878.59;5202464;34;33952;-86
2022/11/03 14:13:10;;;;;;;26.45;11.88;;;;;;;11.20;100.00;100876.03;5201461;34;33631;-86
2022/11/03 14:16:13;;;;;;;25.12;12.70;;;;;;;11.11;100.00;100865.28;5202371;34;34112;-86
2022/11/03 14:19:15;;;;;;;26.52;12.43;;;;;;;11.01;100.00;100871.84;5201753;34;34110;-86
2022/11/03 14:22:23;;;;;;;29.52;13.25;;;;;;;11.06;100.00;100864.94;5202695;34;34072;-86
2022/11/03 14:25:25;;;;;;;23.70;11.90;;;;;;;11.12;100.00;100863.44;5191683;34;32736;-86
2022/11/03 14:28:28;;;;;;;28.27;13.23;;;;;;;11.04;100.00;100858.88;5194123;34;32736;-85
2022/11/03 14:31:31;;;;;;;29.73;12.18;;;;;;;11.00;100.00;100860.25;5189117;34;32963;-86
2022/11/03 14:34:34;;;;;;;23.62;12.65;;;;;;;11.10;100.00;100855.50;5189242;34;33482;-86
2022/11/03 14:37:37;;;;;;;27.40;12.13;;;;;;;11.11;100.00;100853.66;5202377;34;34054;-85
2022/11/03 14:44:02;;;;;;;26.23;11.93;;;;;;;11.07;100.00;100841.53;5202210;34;33910;-86
2022/11/03 14:47:07;;;;;;;24.90;12.82;;;;;;;11.04;100.00;100840.03;5201783;34;33932;-86
2022/11/03 14:50:10;;;;;;;26.35;12.70;;;;;;;11.05;100.00;100843.56;5190137;34;32688;-86
2022/11/03 14:53:13;;;;;;;25.15;12.05;;;;;;;11.16;100.00;100850.47;5191689;34;32442;-86
2022/11/03 14:56:15;;;;;;;24.27;12.30;;;;;;;11.14;100.00;100839.84;5192252;34;32657;-90
2022/11/03 14:59:19;;;;;;;26.12;13.07;;;;;;;11.08;100.00;100833.28;5188977;34;34092;-90
2022/11/03 15:02:22;;;;;;;30.40;13.15;;;;;;;11.03;100.00;100834.81;5202537;34;33692;-90
2022/11/03 15:05:43;;;;;;;25.35;12.98;;;;;;;10.98;100.00;100837.16;5187137;34;32880;-90
2022/11/03 15:08:46;;;;;;;29.83;14.73;;;;;;;10.90;100.00;100838.00;5201967;34;34039;-86
2022/11/03 15:11:55;;;;;;;25.27;12.82;;;;;;;10.70;100.00;100836.66;5204698;34;34132;-86
2022/11/03 15:14:57;;;;;;;30.85;14.98;;;;;;;10.75;100.00;100835.16;5190490;34;32956;-87
2022/11/03 15:18:02;;;;;;;30.62;14.60;;;;;;;10.51;100.00;100835.97;5185858;34;32781;-86
2022/11/03 15:21:05;;;;;;;30.50;15.30;;;;;;;10.37;100.00;100834.75;5204568;34;33968;-86
2022/11/03 15:24:08;;;;;;;28.08;13.95;;;;;;;10.19;100.00;100834.84;5202219;34;34132;-86
2022/11/03 15:27:30;;;;;;;24.77;12.82;;;;;;;10.16;100.00;100824.44;5197893;34;34704;-86
2022/11/03 15:30:34;;;;;;;23.27;13.02;;;;;;;10.08;100.00;100821.72;5186434;34;33656;-85
2022/11/03 15:33:36;;;;;;;23.77;12.95;;;;;;;10.03;100.00;100824.03;5186139;34;32604;-85
2022/11/03 15:36:39;;;;;;;25.12;11.45;;;;;;;9.80;100.00;100818.44;5202551;34;34708;-85
2022/11/03 15:39:42;;;;;;;26.42;12.37;;;;;;;9.81;100.00;100822.78;5179379;34;33734;-85
2022/11/03 15:42:45;;;;;;;20.80;11.65;;;;;;;9.77;100.00;100816.91;5201550;34;34808;-85
2022/11/03 15:45:47;;;;;;;20.92;11.65;;;;;;;9.62;100.00;100807.75;5202788;34;34490;-85
2022/11/03 15:48:53;;;;;;;23.98;12.90;;;;;;;9.57;100.00;100810.09;5203341;34;34341;-86
2022/11/03 15:51:55;;;;;;;25.88;12.85;;;;;;;9.58;100.00;100817.16;5202848;34;34045;-85
2022/11/03 15:54:58;;;;;;;27.35;12.77;;;;;;;9.52;100.00;100825.84;5188757;34;32420;-85
2022/11/03 15:58:01;;;;;;;25.88;12.63;;;;;;;9.44;100.00;100825.81;5199160;34;34365;-85
2022/11/03 16:01:04;;;;;;;22.00;12.00;;;;;;;9.40;100.00;100833.34;5202330;34;33769;-85
2022/11/03 16:04:07;;;;;;;22.02;11.85;;;;;;;9.28;100.00;100821.19;5201638;34;34792;-84
2022/11/03 16:07:10;;;;;;;20.73;11.12;;;;;;;9.35;100.00;100816.84;5201974;34;33732;-85
2022/11/03 16:10:13;;;;;;;21.42;11.35;;;;;;;9.22;100.00;100819.13;5189698;34;33171;-85
2022/11/03 16:13:16;;;;;;;20.80;11.32;;;;;;;9.25;100.00;100814.28;5189432;34;32592;-85
2022/11/03 16:16:19;;;;;;;21.85;11.40;;;;;;;9.26;100.00;100812.44;5202239;34;34301;-85
2022/11/03 16:19:22;;;;;;;24.27;11.18;;;;;;;9.22;100.00;100801.16;5206629;34;34791;-85
2022/11/03 16:22:25;;;;;;;24.52;11.75;;;;;;;9.20;100.00;100799.63;5202289;34;34130;-85
2022/11/03 16:25:28;;;;;;;23.42;12.70;;;;;;;9.13;100.00;100801.28;5190508;34;32950;-85
2022/11/03 16:28:31;;;;;;;23.77;12.02;;;;;;;9.08;100.00;100788.31;5204252;34;34668;-85
2022/11/03 16:31:34;;;;;;;22.55;11.75;;;;;;;9.11;100.00;100779.09;5195876;34;32560;-86
2022/11/03 16:34:37;;;;;;;26.45;13.30;;;;;;;8.98;100.00;100788.44;5196231;34;32224;-85
2022/11/03 16:37:40;;;;;;;33.03;14.00;;;;;;;9.01;100.00;100773.84;5191355;34;32906;-85
2022/11/03 16:40:44;;;;;;;31.60;14.77;;;;;;;8.96;100.00;100768.94;5203870;34;33932;-86
2022/11/03 16:43:48;;;;;;;27.08;14.55;;;;;;;9.02;100.00;100778.22;5193268;34;33302;-86
2022/11/03 16:46:51;;;;;;;31.92;13.62;;;;;;;9.04;100.00;100769.00;5204410;34;34692;-89
2022/11/03 16:49:57;;;;;;;31.75;14.77;;;;;;;9.08;100.00;100772.19;5203808;34;34278;-91
2022/11/03 16:53:00;;;;;;;38.35;16.27;;;;;;;9.10;100.00;100775.59;5191485;34;33579;-91
2022/11/03 16:56:04;;;;;;;38.72;17.12;;;;;;;9.21;100.00;100777.97;5205862;34;34210;-87
